Time;durP1;ratioP1;P1;durP2;ratioP2;P2;SDS_P1;SDS_P2;PMS_P1;PMS_P2;Temp;Humidity;BMP_temperature;BMP_pressure;BME280_temperature;BME280_humidity;BME280_pressure;Samples;Min_cycle;Max_cycle;Signal;HPM_P1;HPM_P2
2023/02/22 00:06:04;;;;;;;5.68;2.50;;;3.80;99.90;;;;;;20903106;28;20083;-81
2023/02/22 00:16:06;;;;;;;8.68;2.30;;;3.90;99.90;;;;;;20844787;28;20381;-80
2023/02/22 00:26:08;;;;;;;4.88;2.40;;;3.70;99.90;;;;;;20849660;28;20025;-80
2023/02/22 00:36:11;;;;;;;3.75;2.33;;;3.70;99.90;;;;;;20851833;28;20035;-80
2023/02/22 00:46:12;;;;;;;11.00;5.13;;;3.50;99.90;;;;;;20861065;28;20370;-80
2023/02/22 00:56:13;;;;;;;16.15;5.78;;;3.90;99.90;;;;;;20838637;28;20044;-80
2023/02/22 01:06:14;;;;;;;14.48;5.90;;;4.30;99.90;;;;;;20894236;28;20033;-80
2023/02/22 01:16:15;;;;;;;10.63;4.90;;;4.30;99.90;;;;;;20850642;28;20095;-79
2023/02/22 01:26:15;;;;;;;13.43;6.70;;;4.40;99.90;;;;;;20923522;28;20025;-79
2023/02/22 01:36:17;;;;;;;10.23;5.80;;;4.30;99.90;;;;;;20922714;28;20463;-80
2023/02/22 01:46:20;;;;;;;7.20;4.38;;;4.20;99.90;;;;;;20845585;28;20083;-80
2023/02/22 01:56:23;;;;;;;5.07;3.00;;;3.70;99.90;;;;;;20871733;28;20033;-80
2023/02/22 02:06:26;;;;;;;6.38;2.33;;;3.50;99.90;;;;;;20865453;28;20037;-80
2023/02/22 02:16:46;;;;;;;3.03;2.15;;;3.20;99.90;;;;;;20843158;28;20063;-79
2023/02/22 02:27:15;;;;;;;3.85;2.30;;;3.10;99.90;;;;;;20875590;28;20084;-80
2023/02/22 02:37:35;;;;;;;4.55;2.10;;;3.00;99.90;;;;;;20832190;28;20060;-80
2023/02/22 02:47:43;;;;;;;9.02;3.05;;;2.90;99.90;;;;;;20889495;28;20044;-79
2023/02/22 02:57:44;;;;;;;14.57;5.60;;;2.70;99.90;;;;;;20858612;28;20108;-80
2023/02/22 03:07:50;;;;;;;13.10;5.95;;;2.30;99.90;;;;;;20869305;28;20057;-80
2023/02/22 03:18:02;;;;;;;11.73;5.28;;;2.40;99.90;;;;;;20817895;28;20112;-80
2023/02/22 03:28:10;;;;;;;11.63;6.72;;;2.40;99.90;;;;;;20888965;28;20560;-80
2023/02/22 03:38:15;;;;;;;12.00;4.95;;;2.40;99.90;;;;;;20836941;28;20044;-79
2023/02/22 03:48:45;;;;;;;13.85;5.47;;;2.50;99.90;;;;;;20860991;28;20054;-80
2023/02/22 03:58:47;;;;;;;14.80;5.20;;;2.70;99.90;;;;;;20849185;28;20187;-80
2023/02/22 04:08:48;;;;;;;9.55;4.93;;;3.00;99.90;;;;;;20860236;28;20157;-80
2023/02/22 04:18:49;;;;;;;8.48;4.75;;;3.00;99.90;;;;;;20825636;28;20120;-80
2023/02/22 04:28:52;;;;;;;14.13;5.45;;;2.70;99.90;;;;;;20844474;28;20457;-80
2023/02/22 04:38:58;;;;;;;13.88;5.05;;;2.60;99.90;;;;;;20813934;28;20476;-79
2023/02/22 04:49:01;;;;;;;12.73;5.18;;;2.60;99.90;;;;;;20849140;28;20035;-79
2023/02/22 04:59:04;;;;;;;10.05;5.43;;;2.40;99.90;;;;;;20834436;28;20032;-79
2023/02/22 05:09:06;;;;;;;9.40;4.97;;;2.30;99.90;;;;;;20839718;28;20029;-78
2023/02/22 05:19:06;;;;;;;20.65;5.57;;;2.30;99.90;;;;;;20869936;28;20026;-79
2023/02/22 05:29:07;;;;;;;7.30;4.50;;;2.60;99.90;;;;;;20923251;28;20066;-79
2023/02/22 05:39:08;;;;;;;18.23;5.32;;;1.90;99.90;;;;;;20896835;28;20032;-78
2023/02/22 05:49:09;;;;;;;9.50;4.82;;;2.00;99.90;;;;;;20888460;28;20071;-78
2023/02/22 05:59:09;;;;;;;16.70;5.22;;;1.90;99.90;;;;;;20924001;28;20035;-79
2023/02/22 06:09:10;;;;;;;13.27;6.40;;;1.90;99.90;;;;;;20801992;28;20032;-79
2023/02/22 06:19:11;;;;;;;11.80;5.78;;;1.60;99.90;;;;;;20784551;28;20080;-77
2023/02/22 06:29:12;;;;;;;10.15;5.28;;;1.30;99.90;;;;;;20791075;28;20033;-79
2023/02/22 06:39:17;;;;;;;8.80;5.43;;;1.40;99.90;;;;;;20818848;28;20439;-80
2023/02/22 06:49:19;;;;;;;11.77;5.90;;;2.00;99.90;;;;;;20809152;28;20051;-77
2023/02/22 06:59:20;;;;;;;15.38;8.35;;;2.80;99.90;;;;;;20855993;28;20115;-78
2023/02/22 07:09:20;;;;;;;;;;;3.80;99.90;;;;;;20900849;28;20034;-78
2023/02/22 07:19:21;;;;;;;12.13;5.18;;;4.70;99.90;;;;;;20825188;28;19909;-78
2023/02/22 07:29:22;;;;;;;12.00;5.43;;;5.00;99.90;;;;;;20830278;28;20045;-80
2023/02/22 07:39:23;;;;;;;11.38;4.95;;;4.80;99.90;;;;;;20876604;28;20658;-80
2023/02/22 07:49:24;;;;;;;13.18;5.95;;;5.20;99.90;;;;;;20868193;28;20121;-80
2023/02/22 07:59:24;;;;;;;;;;;5.00;99.90;;;;;;20867820;28;20545;-80
2023/02/22 08:09:25;;;;;;;14.95;7.97;;;4.80;99.90;;;;;;20914374;28;19920;-80
2023/02/22 08:19:26;;;;;;;;;;;5.60;99.90;;;;;;20851923;28;20031;-79
2023/02/22 08:29:32;;;;;;;13.75;7.00;;;6.30;99.90;;;;;;20876455;28;19913;-81
2023/02/22 08:39:33;;;;;;;10.88;6.72;;;7.80;99.90;;;;;;20874026;28;20064;-80
2023/02/22 08:49:33;;;;;;;12.17;7.27;;;9.50;99.90;;;;;;20851295;28;20492;-80
2023/02/22 08:59:35;;;;;;;28.65;8.10;;;10.20;99.90;;;;;;20842329;28;20065;-81
2023/02/22 09:09:36;;;;;;;17.97;7.43;;;10.40;99.90;;;;;;20843474;28;20032;-80
2023/02/22 09:19:37;;;;;;;11.85;7.20;;;10.50;99.90;;;;;;20859988;28;20037;-80
2023/02/22 09:29:38;;;;;;;15.87;8.13;;;11.70;99.90;;;;;;20845308;28;20081;-81
2023/02/22 09:39:39;;;;;;;14.30;8.50;;;11.50;99.90;;;;;;20902225;28;20136;-80
2023/02/22 09:49:47;;;;;;;21.00;10.27;;;12.00;99.90;;;;;;20876992;28;20041;-79
2023/02/22 10:00:12;;;;;;;18.35;9.30;;;10.90;99.90;;;;;;20837517;28;20120;-81
2023/02/22 10:10:21;;;;;;;24.92;9.88;;;9.30;99.90;;;;;;20833224;28;20036;-81
2023/02/22 10:20:41;;;;;;;25.48;10.63;;;9.60;99.90;;;;;;20787646;28;20397;-81
2023/02/22 10:30:53;;;;;;;21.02;10.38;;;10.80;99.90;;;;;;20850358;28;20031;-81
2023/02/22 10:40:57;;;;;;;19.70;10.65;;;11.50;99.90;;;;;;20878889;28;20581;-79
2023/02/22 10:51:02;;;;;;;20.67;10.68;;;12.30;99.90;;;;;;20852981;28;20037;-81
2023/02/22 11:01:25;;;;;;;20.38;8.90;;;11.20;99.90;;;;;;20803044;28;20055;-80
2023/02/22 11:11:28;;;;;;;17.65;9.70;;;11.20;99.90;;;;;;20818252;28;20049;-82
2023/02/22 11:21:31;;;;;;;19.30;9.63;;;11.10;99.90;;;;;;20797650;28;20156;-81
2023/02/22 11:31:32;;;;;;;17.80;9.30;;;12.20;99.90;;;;;;20841973;28;20056;-80
2023/02/22 11:41:33;;;;;;;13.70;7.77;;;13.10;99.90;;;;;;20850686;28;20511;-81
2023/02/22 11:52:07;;;;;;;14.80;7.72;;;13.90;99.90;;;;;;20844939;28;20100;-82
2023/02/22 12:02:34;;;;;;;15.23;8.63;;;13.70;99.90;;;;;;20811980;28;20037;-83
2023/02/22 12:12:47;;;;;;;20.10;9.20;;;13.50;99.90;;;;;;20819284;28;20059;-79
2023/02/22 12:23:05;;;;;;;25.48;9.80;;;13.10;99.90;;;;;;20826156;28;20037;-79
2023/02/22 12:33:14;;;;;;;18.77;8.27;;;13.10;99.90;;;;;;20830451;28;20029;-79
2023/02/22 12:43:33;;;;;;;19.30;7.93;;;13.70;99.90;;;;;;20852087;28;20032;-79
2023/02/22 12:53:37;;;;;;;16.55;8.43;;;14.80;99.90;;;;;;20835373;28;20033;-80
2023/02/22 13:03:40;;;;;;;17.30;8.57;;;14.50;99.90;;;;;;20826360;28;20045;-81
2023/02/22 13:14:06;;;;;;;19.50;9.40;;;14.80;99.90;;;;;;20876125;28;20033;-79
2023/02/22 13:24:31;;;;;;;16.90;9.38;;;14.70;99.90;;;;;;20883536;28;20032;-78
2023/02/22 13:34:43;;;;;;;22.17;9.45;;;14.90;99.90;;;;;;20928526;28;20075;-79
2023/02/22 13:45:02;;;;;;;22.35;10.75;;;14.70;99.90;;;;;;20900717;28;20040;-79
2023/02/22 13:55:13;;;;;;;18.67;9.90;;;14.50;99.90;;;;;;20901449;28;20025;-80
2023/02/22 14:05:40;;;;;;;23.35;9.95;;;13.90;99.90;;;;;;20872572;28;20025;-79
2023/02/22 14:16:17;;;;;;;21.13;10.07;;;13.70;99.90;;;;;;20848396;28;20025;-79
2023/02/22 14:26:35;;;;;;;19.02;9.73;;;13.70;99.90;;;;;;20851477;28;20061;-78
2023/02/22 14:37:06;;;;;;;26.50;9.93;;;13.70;99.90;;;;;;20928778;28;20514;-79
2023/02/22 14:47:31;;;;;;;18.58;10.57;;;13.60;99.90;;;;;;20869090;28;20028;-79
2023/02/22 14:58:04;;;;;;;17.40;9.82;;;13.40;99.90;;;;;;20865401;28;20029;-79
2023/02/22 15:08:08;;;;;;;21.92;10.70;;;13.30;99.90;;;;;;20893894;28;20111;-80
2023/02/22 15:18:18;;;;;;;20.90;10.75;;;13.20;99.90;;;;;;20849286;28;20045;-80
2023/02/22 15:28:23;;;;;;;24.10;11.30;;;13.10;99.90;;;;;;20854647;28;20128;-80
2023/02/22 15:38:29;;;;;;;22.80;12.40;;;12.80;99.90;;;;;;20854833;28;20026;-80
2023/02/22 15:48:31;;;;;;;25.42;12.45;;;12.20;99.90;;;;;;20831257;28;20033;-81
2023/02/22 15:58:33;;;;;;;24.30;11.73;;;12.20;99.90;;;;;;20832647;28;20033;-82
2023/02/22 16:08:43;;;;;;;22.10;10.90;;;12.00;99.90;;;;;;20846104;28;20072;-80
2023/02/22 16:18:44;;;;;;;29.40;12.38;;;11.90;99.90;;;;;;20855385;28;20033;-80
2023/02/22 16:28:53;;;;;;;31.43;14.27;;;11.70;99.90;;;;;;20856353;28;20549;-80
2023/02/22 16:38:54;;;;;;;28.55;12.80;;;11.50;99.90;;;;;;20859630;28;20034;-81
2023/02/22 16:48:58;;;;;;;28.97;11.53;;;11.40;99.90;;;;;;20856882;28;20495;-79
2023/02/22 16:59:09;;;;;;;36.25;13.80;;;11.20;99.90;;;;;;20858687;28;20060;-81
2023/02/22 17:09:10;;;;;;;27.07;12.80;;;11.10;99.90;;;;;;20859675;28;20103;-82
2023/02/22 17:19:20;;;;;;;24.40;12.68;;;10.90;99.90;;;;;;20875028;28;20033;-82
2023/02/22 17:29:21;;;;;;;31.35;13.15;;;10.90;99.90;;;;;;20855950;28;20026;-80
2023/02/22 17:39:22;;;;;;;34.15;15.77;;;10.80;99.90;;;;;;20812717;28;20026;-80
2023/02/22 17:49:23;;;;;;;35.10;14.40;;;10.70;99.90;;;;;;20821325;28;20108;-80
2023/02/22 17:59:23;;;;;;;33.97;14.90;;;10.60;99.90;;;;;;20810582;28;20045;-79
2023/02/22 18:09:24;;;;;;;39.23;15.50;;;10.60;99.90;;;;;;20804436;28;20040;-79
2023/02/22 18:19:27;;;;;;;31.60;14.87;;;10.50;99.90;;;;;;20811884;28;20022;-80
2023/02/22 18:29:28;;;;;;;33.90;16.20;;;10.40;99.90;;;;;;20772968;28;20026;-80
2023/02/22 18:39:32;;;;;;;40.53;16.90;;;10.30;99.90;;;;;;20804344;28;20512;-80
2023/02/22 18:49:33;;;;;;;38.58;16.55;;;10.20;99.90;;;;;;20773143;28;20075;-81
2023/02/22 18:59:34;;;;;;;36.47;15.73;;;10.10;99.90;;;;;;20787877;28;20032;-78
2023/02/22 19:09:35;;;;;;;36.63;16.33;;;10.00;99.90;;;;;;20788686;28;20029;-82
2023/02/22 19:19:36;;;;;;;45.08;19.27;;;9.90;99.90;;;;;;20783097;28;20492;-81
2023/02/22 19:29:37;;;;;;;45.53;16.97;;;9.80;99.90;;;;;;20786168;28;20221;-80
2023/02/22 19:39:40;;;;;;;43.15;18.90;;;9.70;99.90;;;;;;20759586;28;20045;-81
2023/02/22 19:49:42;;;;;;;46.20;19.90;;;9.50;99.90;;;;;;20799983;28;20032;-80
2023/02/22 19:59:43;;;;;;;39.17;18.23;;;9.40;99.90;;;;;;20809996;28;20029;-79
2023/02/22 20:09:44;;;;;;;44.45;20.65;;;9.30;99.90;;;;;;20806722;28;20030;-81
2023/02/22 20:19:47;;;;;;;37.43;18.67;;;9.20;99.90;;;;;;20809104;28;20029;-80
2023/02/22 20:29:48;;;;;;;40.08;18.80;;;9.30;99.90;;;;;;20781772;28;20129;-81
2023/02/22 20:39:51;;;;;;;42.07;18.07;;;9.30;99.90;;;;;;20772366;28;20033;-80
2023/02/22 20:49:52;;;;;;;35.65;18.42;;;9.40;99.90;;;;;;20844804;28;20033;-80
2023/02/22 20:59:53;;;;;;;40.70;18.57;;;9.30;99.90;;;;;;20843895;28;20029;-80
2023/02/22 21:09:54;;;;;;;43.73;19.83;;;9.30;99.90;;;;;;20843582;28;20094;-80
2023/02/22 21:19:55;;;;;;;40.67;19.10;;;9.30;99.90;;;;;;20831073;28;20038;-80
2023/02/22 21:29:57;;;;;;;41.22;19.98;;;9.10;99.90;;;;;;20803854;28;20109;-80
2023/02/22 21:39:58;;;;;;;41.58;19.98;;;9.10;99.90;;;;;;20799035;28;20025;-80
2023/02/22 21:50:00;;;;;;;43.70;19.33;;;9.00;99.90;;;;;;20831742;28;20110;-80
2023/02/22 22:00:11;;;;;;;43.63;20.27;;;8.80;99.90;;;;;;20847604;28;20382;-80
2023/02/22 22:10:17;;;;;;;;;;;8.70;99.90;;;;;;20872946;28;20034;-80
2023/02/22 22:20:17;;;;;;;39.90;19.02;;;8.70;99.90;;;;;;20839805;28;19909;-80
2023/02/22 22:30:18;;;;;;;48.77;23.43;;;8.70;99.90;;;;;;20837960;28;20506;-80
2023/02/22 22:40:19;;;;;;;48.67;21.07;;;8.60;99.90;;;;;;20879806;28;20132;-80
2023/02/22 22:50:25;;;;;;;49.00;20.83;;;8.70;99.90;;;;;;20836282;28;20079;-80
2023/02/22 23:00:34;;;;;;;45.97;20.45;;;8.70;99.90;;;;;;20848690;28;20052;-81
2023/02/22 23:10:39;;;;;;;33.85;17.73;;;8.70;99.90;;;;;;20875561;28;20530;-80
2023/02/22 23:20:41;;;;;;;48.75;22.67;;;8.80;99.90;;;;;;20831925;28;20037;-80
2023/02/22 23:30:42;;;;;;;48.25;21.02;;;8.60;99.90;;;;;;20830325;28;20021;-80
2023/02/22 23:40:43;;;;;;;38.17;18.45;;;8.60;99.90;;;;;;20808525;28;20032;-81
2023/02/22 23:50:45;;;;;;;;;;;8.60;99.90;;;;;;20796734;28;20042;-81
